Orion Explorer — LNDT — position and weather

sailwx.info

Track history (hours):
 
Tides and Currents Weather Stations Pressure Air Temp Water Temp Dewpoint Dewpoint Depression Visibility Wind Speed Wind Dir Waves Ship Positions

Orion Explorer

Last reported at 2017-Aug-21 21:30 UTC. Time now 2017-Aug-21 21:50 UTC.
Position N 68°31' E 014°57'.

Length 59 m; draft 4.5 m.

Type: Cargo ship. MMSI: 259496000.

Date/timePositionNaut miles runAvg speedWind from/ knotsBaromVisibWave heightAir tempDewpointWater temp
2017-Aug-21 21:30N 68°31' E 014°57'0 0.0
2017-Aug-21 21:00N 68°31' E 014°57'0 0.7
2017-Aug-21 20:30N 68°31' E 014°58'4 7.6
2017-Aug-21 20:00N 68°35' E 014°58'0 0.7
2017-Aug-21 19:30N 68°34' E 014°57'0 0.0
2017-Aug-21 19:01N 68°34' E 014°57'0 0.0
2017-Aug-21 18:30N 68°34' E 014°57'0 0.0
2017-Aug-21 18:00N 68°34' E 014°57'0 0.0
2017-Aug-21 17:30N 68°34' E 014°57'0 0.0
2017-Aug-21 17:00N 68°34' E 014°57'0 0.0
2017-Aug-21 16:30N 68°34' E 014°57'0 0.0
2017-Aug-21 16:00N 68°34' E 014°57'0 0.0
2017-Aug-21 15:30N 68°34' E 014°57'0 0.0
2017-Aug-21 15:00N 68°34' E 014°57'0 0.0
2017-Aug-21 14:30N 68°34' E 014°57'0 0.0
2017-Aug-21 14:01N 68°34' E 014°57'0 0.0
2017-Aug-21 13:30N 68°34' E 014°57'0 0.0
2017-Aug-21 13:00N 68°34' E 014°57'0 0.0
2017-Aug-21 12:30N 68°34' E 014°57'0 0.0
2017-Aug-21 12:00N 68°34' E 014°57'0 0.0
2017-Aug-21 11:30N 68°34' E 014°57'0 0.0
2017-Aug-21 11:01N 68°34' E 014°57'0 0.2
2017-Aug-21 10:30N 68°34' E 014°57'0 0.0
2017-Aug-21 10:00N 68°34' E 014°57'0 0.0
2017-Aug-21 09:30N 68°34' E 014°57'1 2.8
2017-Aug-21 09:00N 68°34' E 015°01'611.3
2017-Aug-21 08:30N 68°37' E 015°15'511.0
2017-Aug-21 08:00N 68°41' E 015°25'611.0
2017-Aug-21 07:29N 68°46' E 015°25'611.4
2017-Aug-21 07:00N 68°52' E 015°30'611.4
2017-Aug-21 06:30N 68°57' E 015°36'5 9.7
2017-Aug-21 06:00N 68°59' E 015°49'611.2
2017-Aug-21 05:30N 68°59' E 016°04'611.2
2017-Aug-21 05:00N 68°60' E 016°20'611.9
2017-Aug-21 04:30N 68°58' E 016°36'611.5
2017-Aug-21 04:00N 68°59' E 016°52'612.1
2017-Aug-21 03:30N 68°60' E 017°08'510.7
2017-Aug-21 03:01N 69°03' E 017°20'611.5
2017-Aug-21 02:31N 69°06' E 017°33'611.9
2017-Aug-21 02:00N 69°09' E 017°49'510.5
2017-Aug-21 01:30N 69°12' E 018°01'611.4
2017-Aug-21 01:00N 69°18' E 017°58'510.4
2017-Aug-21 00:30N 69°22' E 018°06'611.1
2017-Aug-21 00:00N 69°28' E 018°07'611.2
2017-Aug-20 23:30N 69°30' E 018°21'611.5
2017-Aug-20 23:00N 69°33' E 018°36'510.7
2017-Aug-20 22:31N 69°35' E 018°50'612.0
2017-Aug-20 22:00N 69°40' E 018°60'611.4
2017-Aug-20 21:30N 69°45' E 019°07'611.3
2017-Aug-20 21:00N 69°48' E 019°21'611.9
2017-Aug-20 20:30N 69°50' E 019°38'611.7
2017-Aug-20 20:00N 69°53' E 019°53'611.6
2017-Aug-20 19:30N 69°57' E 020°05'611.5
2017-Aug-20 19:00N 69°59' E 020°20'611.5
2017-Aug-20 18:31N 70°01' E 020°35'611.9
2017-Aug-20 18:00N 70°04' E 020°52'611.3
2017-Aug-20 17:30N 70°08' E 021°01'611.4
2017-Aug-20 17:01N 70°13' E 021°09'611.3
2017-Aug-20 16:30N 70°17' E 021°21'611.6
2017-Aug-20 16:01N 70°21' E 021°33'611.0
2017-Aug-20 15:30N 70°25' E 021°47'611.5
2017-Aug-20 15:00N 70°26' E 022°03'611.6
2017-Aug-20 14:31N 70°28' E 022°20'611.1
2017-Aug-20 14:00N 70°29' E 022°36'611.2
2017-Aug-20 13:30N 70°30' E 022°52'510.8
2017-Aug-20 13:00N 70°34' E 023°04'611.0
2017-Aug-20 12:30N 70°38' E 023°16'510.6
2017-Aug-20 12:00N 70°41' E 023°28'510.5
2017-Aug-20 11:30N 70°45' E 023°39'611.2
2017-Aug-20 11:00N 70°49' E 023°52'611.1
2017-Aug-20 10:30N 70°53' E 024°04'510.5
2017-Aug-20 10:00N 70°57' E 024°15'510.6
2017-Aug-20 09:31N 70°60' E 024°27'5 9.7
2017-Aug-20 09:00N 71°01' E 024°42'611.3
2017-Aug-20 08:30N 70°59' E 024°59'611.3
2017-Aug-20 08:00N 70°59' E 025°16'510.8
2017-Aug-20 07:30N 70°57' E 025°30'611.1
2017-Aug-20 07:00N 70°56' E 025°47'611.6
2017-Aug-20 06:30N 70°58' E 026°05'611.7
2017-Aug-20 05:59N 70°60' E 026°22'611.7
2017-Aug-20 05:29N 71°02' E 026°39'611.9
2017-Aug-20 05:00N 71°04' E 026°56'611.4
2017-Aug-20 04:30N 71°06' E 027°12'510.9
2017-Aug-20 04:00N 71°07' E 027°28'510.8
2017-Aug-20 03:31N 71°08' E 027°44'510.4
2017-Aug-20 03:00N 71°08' E 028°01'510.6
2017-Aug-20 02:30N 71°07' E 028°16'510.2
2017-Aug-20 02:00N 71°04' E 028°30'510.6
2017-Aug-20 01:30N 71°01' E 028°44'510.9
2017-Aug-20 01:00N 70°58' E 028°58'510.6
2017-Aug-20 00:30N 70°55' E 029°11'510.3
2017-Aug-20 00:00N 70°53' E 029°24'510.5
2017-Aug-19 23:30N 70°50' E 029°38'510.5
2017-Aug-19 23:00N 70°47' E 029°52'510.4
2017-Aug-19 22:30N 70°44' E 030°04'510.2
2017-Aug-19 22:00N 70°40' E 030°15'9 2.9
2017-Aug-19 19:02N 70°34' E 030°32'011.9
2017-Aug-19 19:00N 70°34' E 030°33'611.5
2017-Aug-19 18:30N 70°31' E 030°48'611.8
2017-Aug-19 18:01N 70°26' E 030°60'611.6
2017-Aug-19 17:30N 70°21' E 031°05'510.6
2017-Aug-19 17:00N 70°16' E 031°00'611.2
2017-Aug-19 16:30N 70°12' E 030°47'511.1
2017-Aug-19 16:00N 70°09' E 030°35'511.0
2017-Aug-19 15:30N 70°06' E 030°22'510.9
2017-Aug-19 15:00N 70°03' E 030°07'1111.0
2017-Aug-19 14:00N 70°02' E 029°35'4 0.6
2017-Aug-19 06:31N 70°04' E 029°23'510.6
2017-Aug-19 06:04N 70°03' E 029°37'110.7
2017-Aug-19 06:00N 70°03' E 029°39'510.6
2017-Aug-19 05:30N 70°03' E 029°55'510.7
2017-Aug-19 05:00N 70°04' E 030°10'510.6
2017-Aug-19 04:30N 70°06' E 030°24'611.1
2017-Aug-19 04:00N 70°09' E 030°37'511.0
2017-Aug-19 03:30N 70°13' E 030°50'510.8
2017-Aug-19 03:00N 70°16' E 031°02'510.1
2017-Aug-19 02:30N 70°21' E 031°04'511.1
2017-Aug-19 02:01N 70°26' E 031°00'611.2
2017-Aug-19 01:30N 70°30' E 030°48'510.9
2017-Aug-19 01:00N 70°34' E 030°35'5 1.6
2017-Aug-18 21:44N 70°36' E 030°21'310.6
2017-Aug-18 21:25N 70°39' E 030°18'410.7
2017-Aug-18 21:00N 70°43' E 030°10'511.0
2017-Aug-18 20:30N 70°46' E 029°56'510.8
2017-Aug-18 20:00N 70°49' E 029°42'510.5
2017-Aug-18 19:30N 70°52' E 029°29'510.1
2017-Aug-18 19:00N 70°55' E 029°16'5 9.8
2017-Aug-18 18:30N 70°57' E 029°03'5 9.9
2017-Aug-18 18:00N 70°60' E 028°51'5 9.5
2017-Aug-18 17:30N 71°02' E 028°38'5 9.9
2017-Aug-18 17:00N 71°05' E 028°25'5 9.5
2017-Aug-18 16:30N 71°08' E 028°13'5 9.9
2017-Aug-18 16:00N 71°08' E 027°58'510.1
2017-Aug-18 15:31N 71°09' E 027°42'5 9.8
2017-Aug-18 15:00N 71°08' E 027°27'1110.8
2017-Aug-18 14:00N 71°04' E 026°56'610.9
2017-Aug-18 13:29N 71°02' E 026°39'510.3
2017-Aug-18 13:00N 71°01' E 026°25'510.3
2017-Aug-18 12:30N 70°59' E 026°10'510.4
2017-Aug-18 12:00N 70°57' E 025°54'4 7.3
2017-Aug-18 11:30N 70°59' E 025°45'0 0.0
2017-Aug-18 11:00N 70°59' E 025°45'0 0.0
2017-Aug-18 10:29N 70°59' E 025°45'0 0.0
2017-Aug-18 10:00N 70°59' E 025°45'3 7.1
2017-Aug-18 09:30N 70°56' E 025°40'510.8
2017-Aug-18 09:00N 70°58' E 025°25'510.7
2017-Aug-18 08:30N 70°60' E 025°09'510.7
2017-Aug-18 08:00N 71°00' E 024°52'510.7
2017-Aug-18 07:30N 71°01' E 024°36'5 9.8
2017-Aug-18 07:00N 70°58' E 024°26'611.0
2017-Aug-18 06:30N 70°53' E 024°19'510.6
2017-Aug-18 06:00N 70°48' E 024°13'510.7
2017-Aug-18 05:30N 70°43' E 024°11'510.4
2017-Aug-18 05:01N 70°38' E 024°10'510.1
2017-Aug-18 04:29N 70°33' E 024°03'5 9.7
2017-Aug-18 04:00N 70°30' E 023°52'5 9.9
2017-Aug-18 03:30N 70°27' E 023°41'510.5
2017-Aug-18 03:00N 70°23' E 023°31'510.7
2017-Aug-18 02:30N 70°18' E 023°22'4 9.0
2017-Aug-18 02:01N 70°14' E 023°16'1 2.8
2017-Aug-18 01:29N 70°14' E 023°20'0 0.4
2017-Aug-18 01:00N 70°14' E 023°20'0 0.5
2017-Aug-18 00:30N 70°14' E 023°21'510.2
2017-Aug-18 00:00N 70°14' E 023°05'510.0
2017-Aug-17 23:30N 70°14' E 022°50'510.8
2017-Aug-17 23:01N 70°15' E 022°35'510.8
2017-Aug-17 22:30N 70°18' E 022°20'510.8
2017-Aug-17 22:00N 70°20' E 022°06'510.8
2017-Aug-17 21:30N 70°22' E 021°52'5 9.1
2017-Aug-17 21:00N 70°23' E 021°38'611.1
2017-Aug-17 20:30N 70°19' E 021°27'510.6
2017-Aug-17 20:00N 70°15' E 021°15'1410.4
2017-Aug-17 18:41N 70°04' E 020°54'210.3
2017-Aug-17 18:30N 70°03' E 020°49'611.2
2017-Aug-17 18:00N 70°01' E 020°34'611.2
2017-Aug-17 17:30N 69°59' E 020°18'611.3
2017-Aug-17 17:01N 69°56' E 020°04'610.9
2017-Aug-17 16:30N 69°53' E 019°51'510.7
2017-Aug-17 16:00N 69°50' E 019°38'611.2
2017-Aug-17 15:30N 69°48' E 019°23'611.3
2017-Aug-17 15:00N 69°45' E 019°09'4 7.6
2017-Aug-17 14:31N 69°42' E 019°05'0 0.0
2017-Aug-17 14:00N 69°42' E 019°05'2 3.0
2017-Aug-17 13:30N 69°41' E 019°02'611.1
2017-Aug-17 13:00N 69°36' E 018°53'5 9.5
2017-Aug-17 12:30N 69°33' E 018°42'510.7
2017-Aug-17 12:00N 69°31' E 018°28'510.5
2017-Aug-17 11:30N 69°29' E 018°14'4 8.4
2017-Aug-17 11:00N 69°26' E 018°07'4 9.0
2017-Aug-17 10:31N 69°21' E 018°06'510.3
2017-Aug-17 10:00N 69°17' E 017°58'510.1
2017-Aug-17 09:30N 69°12' E 018°01'5 9.8
2017-Aug-17 09:00N 69°09' E 017°50'510.8
2017-Aug-17 08:30N 69°07' E 017°36'611.0
2017-Aug-17 08:00N 69°04' E 017°22'510.7
2017-Aug-17 07:30N 69°00' E 017°13'510.6
2017-Aug-17 07:00N 68°59' E 016°59'510.6
2017-Aug-17 06:30N 68°59' E 016°44'510.4
2017-Aug-17 06:01N 68°58' E 016°30'510.5
2017-Aug-17 05:31N 68°60' E 016°16'510.7
2017-Aug-17 05:00N 68°59' E 016°01'510.7
2017-Aug-17 04:30N 68°59' E 015°46'5 9.6
2017-Aug-17 04:00N 68°56' E 015°35'510.7
2017-Aug-17 03:30N 68°51' E 015°29'611.0
2017-Aug-17 03:00N 68°45' E 015°26'611.4
2017-Aug-17 02:30N 68°40' E 015°24'510.8
2017-Aug-17 02:01N 68°36' E 015°13'5 9.7
2017-Aug-17 01:30N 68°34' E 015°01'1 2.8
2017-Aug-17 01:00N 68°34' E 014°57'0 0.0
2017-Aug-17 00:30N 68°34' E 014°57'0 0.0
2017-Aug-17 00:00N 68°34' E 014°57'0 0.0
2017-Aug-16 23:31N 68°34' E 014°57'0 0.0
2017-Aug-16 23:00N 68°34' E 014°57'0 0.0
2017-Aug-16 22:30N 68°34' E 014°57'0 0.0
2017-Aug-16 22:00N 68°34' E 014°57'0 0.0
2017-Aug-16 21:30N 68°34' E 014°57'0 0.0
2017-Aug-16 21:00N 68°34' E 014°57'0 0.0
2017-Aug-16 20:30N 68°34' E 014°57'0 0.0
2017-Aug-16 20:00N 68°34' E 014°57'0 0.0
2017-Aug-16 19:30N 68°34' E 014°57'0 0.0
2017-Aug-16 18:59N 68°34' E 014°57'2 5.0
2017-Aug-16 18:30N 68°33' E 015°03'611.4
2017-Aug-16 18:00N 68°29' E 015°13'612.7
2017-Aug-16 17:30N 68°24' E 015°05'611.6
2017-Aug-16 17:00N 68°18' E 014°58'3 5.6
2017-Aug-16 16:30N 68°17' E 015°05'611.5
2017-Aug-16 16:00N 68°21' E 015°16'2 4.3
2017-Aug-16 15:30N 68°23' E 015°19'0 0.0
2017-Aug-16 15:00N 68°23' E 015°19'0 0.0
2017-Aug-16 14:29N 68°23' E 015°19'3 5.4
2017-Aug-16 14:00N 68°20' E 015°23'510.7
2017-Aug-16 13:30N 68°18' E 015°36'510.8
2017-Aug-16 13:00N 68°20' E 015°50'510.6
2017-Aug-16 12:30N 68°24' E 015°60'611.4
2017-Aug-16 12:00N 68°29' E 016°06'611.3
2017-Aug-16 11:30N 68°33' E 016°16'611.2
2017-Aug-16 11:00N 68°34' E 016°31'510.7
2017-Aug-16 10:30N 68°39' E 016°37'510.6
2017-Aug-16 10:00N 68°43' E 016°44'610.9
2017-Aug-16 09:29N 68°48' E 016°52'511.0
2017-Aug-16 09:00N 68°53' E 016°60'510.9
2017-Aug-16 08:30N 68°57' E 017°10'611.5
2017-Aug-16 08:00N 68°59' E 017°24'1 2.7
2017-Aug-16 07:30N 69°00' E 017°27'1 1.5
2017-Aug-16 07:00N 68°60' E 017°27'611.1
2017-Aug-16 06:30N 68°54' E 017°26'4 8.5
2017-Aug-16 06:00N 68°50' E 017°24'5 9.8
2017-Aug-16 05:29N 68°46' E 017°15'4 7.8
2017-Aug-16 05:00N 68°43' E 017°09'0 0.0
2017-Aug-16 04:30N 68°43' E 017°09'0 0.0
2017-Aug-16 04:00N 68°43' E 017°09'0 0.0
2017-Aug-16 03:30N 68°43' E 017°09'0 0.0
2017-Aug-16 03:00N 68°43' E 017°09'0 0.3
2017-Aug-16 02:30N 68°43' E 017°08'3 5.1
2017-Aug-16 02:00N 68°42' E 017°03'1 1.1
2017-Aug-16 01:30N 68°42' E 017°04'4 8.9
2017-Aug-16 01:00N 68°43' E 016°52'4 8.7
2017-Aug-16 00:30N 68°46' E 016°43'510.3
2017-Aug-16 00:00N 68°51' E 016°36'510.8
2017-Aug-15 23:30N 68°53' E 016°24'611.0
2017-Aug-15 23:00N 68°57' E 016°12'510.8
2017-Aug-15 22:30N 68°59' E 015°58'510.4
2017-Aug-15 22:00N 68°59' E 015°43'5 9.4
2017-Aug-15 21:30N 68°55' E 015°35'510.6
2017-Aug-15 21:00N 68°50' E 015°28'510.8
2017-Aug-15 20:30N 68°45' E 015°25'510.9
2017-Aug-15 20:00N 68°40' E 015°26'2 4.1
2017-Aug-15 19:30N 68°38' E 015°29'0 0.0
2017-Aug-15 19:00N 68°38' E 015°29'3 5.0
2017-Aug-15 18:30N 68°37' E 015°23'0 0.6
2017-Aug-15 18:00N 68°37' E 015°23'5 9.9
2017-Aug-15 17:30N 68°34' E 015°11'5 9.9
2017-Aug-15 17:00N 68°29' E 015°14'0 0.3
2017-Aug-15 16:30N 68°30' E 015°14'0 0.0
2017-Aug-15 16:00N 68°30' E 015°14'4 7.9
2017-Aug-15 15:29N 68°30' E 015°03'2 5.0
2017-Aug-15 15:00N 68°31' E 014°57'0 0.0
2017-Aug-15 14:30N 68°31' E 014°57'0 0.0
2017-Aug-15 14:00N 68°31' E 014°57'1 1.0
2017-Aug-15 13:30N 68°31' E 014°58'4 7.4
2017-Aug-15 13:00N 68°34' E 014°59'1 1.4
2017-Aug-15 12:29N 68°34' E 014°57'0 0.0
2017-Aug-15 12:00N 68°34' E 014°57'0 0.0
2017-Aug-15 11:30N 68°34' E 014°57'0 0.0
2017-Aug-15 11:00N 68°34' E 014°57'0 0.0
2017-Aug-15 10:30N 68°34' E 014°57'0 0.0
2017-Aug-15 10:00N 68°34' E 014°57'0 0.0
2017-Aug-15 09:30N 68°34' E 014°57'0 0.0
2017-Aug-15 09:00N 68°34' E 014°57'0 0.0
2017-Aug-15 08:30N 68°34' E 014°57'0 0.0
2017-Aug-15 08:00N 68°34' E 014°57'0 0.0
2017-Aug-15 07:30N 68°34' E 014°57'0 0.0
2017-Aug-15 07:00N 68°34' E 014°57'0 0.0
2017-Aug-15 06:30N 68°34' E 014°57'0 0.0
2017-Aug-15 05:59N 68°34' E 014°57'0 0.1
2017-Aug-15 05:30N 68°35' E 014°57'0 0.0
2017-Aug-15 05:00N 68°35' E 014°57'0 0.0
2017-Aug-15 04:30N 68°35' E 014°57'0 0.0
2017-Aug-15 04:00N 68°35' E 014°57'0 0.0
2017-Aug-15 03:30N 68°35' E 014°57'0 0.0
2017-Aug-15 03:00N 68°35' E 014°57'0 0.0
2017-Aug-15 02:30N 68°35' E 014°57'0 0.0
2017-Aug-15 02:00N 68°35' E 014°57'0 0.0
2017-Aug-15 01:30N 68°35' E 014°57'0 0.0
2017-Aug-15 01:00N 68°35' E 014°57'0 0.0
2017-Aug-15 00:30N 68°35' E 014°57'0 0.0
2017-Aug-15 00:00N 68°35' E 014°57'0 0.0
2017-Aug-14 23:30N 68°35' E 014°57'0 0.0
2017-Aug-14 23:00N 68°35' E 014°57'1 1.8
2017-Aug-14 22:30N 68°34' E 014°59'510.5
2017-Aug-14 22:00N 68°36' E 015°13'610.9
2017-Aug-14 21:30N 68°40' E 015°24'5 9.9
2017-Aug-14 21:00N 68°45' E 015°26'510.5
2017-Aug-14 20:30N 68°50' E 015°28'611.1
2017-Aug-14 20:00N 68°55' E 015°35'5 9.7
2017-Aug-14 19:30N 68°59' E 015°43'510.5
2017-Aug-14 19:00N 68°59' E 015°58'611.1
2017-Aug-14 18:30N 68°60' E 016°13'510.3
2017-Aug-14 18:00N 68°59' E 016°27'510.3
2017-Aug-14 17:30N 68°59' E 016°41'510.9
2017-Aug-14 17:00N 68°59' E 016°56'510.7
2017-Aug-14 16:30N 69°00' E 017°11'5 9.5
2017-Aug-14 16:00N 69°03' E 017°21'5 9.7
2017-Aug-14 15:30N 69°06' E 017°31'19 7.8
2017-Aug-14 13:07N 69°21' E 018°06'1 6.0
2017-Aug-14 13:00N 69°21' E 018°06'510.2
2017-Aug-14 12:30N 69°26' E 018°07'5 9.3
2017-Aug-14 12:00N 69°30' E 018°16'510.3
2017-Aug-14 11:30N 69°32' E 018°30'5 9.8
2017-Aug-14 11:00N 69°33' E 018°43'510.1
2017-Aug-14 10:30N 69°37' E 018°54'5 9.4
2017-Aug-14 10:00N 69°41' E 019°01'2 3.6
2017-Aug-14 09:30N 69°42' E 019°04'0 0.0
2017-Aug-14 09:00N 69°42' E 019°04'2 5.0
2017-Aug-14 08:30N 69°44' E 019°05'5 9.9
2017-Aug-14 08:00N 69°47' E 019°17'5 9.9
2017-Aug-14 07:29N 69°49' E 019°30'510.1
2017-Aug-14 07:00N 69°51' E 019°44'510.4
2017-Aug-14 06:30N 69°54' E 019°56'510.0
2017-Aug-14 06:00N 69°57' E 020°07'5 9.5
2017-Aug-14 05:30N 69°59' E 020°19'5 9.9
2017-Aug-14 05:00N 70°01' E 020°33'5 9.7
2017-Aug-14 04:30N 70°03' E 020°46'5 9.5
2017-Aug-14 03:59N 70°06' E 020°57'510.3
2017-Aug-14 03:30N 70°10' E 021°04'510.0
2017-Aug-14 02:59N 70°15' E 021°12'510.3
2017-Aug-14 02:30N 70°18' E 021°24'510.2
2017-Aug-14 02:00N 70°22' E 021°34'5 9.9
2017-Aug-14 01:30N 70°24' E 021°46'510.5
2017-Aug-14 01:00N 70°26' E 022°01'510.6
2017-Aug-14 00:30N 70°27' E 022°17'611.0
2017-Aug-13 23:59N 70°29' E 022°33'511.2
2017-Aug-13 23:30N 70°30' E 022°48'510.8
2017-Aug-13 23:00N 70°33' E 023°02'611.1
2017-Aug-13 22:30N 70°38' E 023°12'611.7
2017-Aug-13 22:00N 70°42' E 023°22'5 9.5
2017-Aug-13 21:30N 70°47' E 023°26'1 1.2
2017-Aug-13 21:00N 70°48' E 023°25'0 0.0
2017-Aug-13 20:30N 70°48' E 023°25'0 0.0
2017-Aug-13 20:00N 70°48' E 023°25'4 7.4
2017-Aug-13 19:30N 70°48' E 023°36'510.7
2017-Aug-13 19:00N 70°51' E 023°50'510.4
2017-Aug-13 18:30N 70°54' E 024°03'5 9.6
2017-Aug-13 18:00N 70°57' E 024°15'5 9.9
2017-Aug-13 17:30N 70°60' E 024°26'5 8.9
2017-Aug-13 17:00N 71°01' E 024°39'5 9.9
2017-Aug-13 16:29N 70°60' E 024°54'510.1
2017-Aug-13 16:00N 70°59' E 025°09'5 9.9
2017-Aug-13 15:30N 70°58' E 025°24'4 7.8
2017-Aug-13 15:00N 70°56' E 025°33'510.6
2017-Aug-13 14:30N 70°56' E 025°49'510.8
2017-Aug-13 14:00N 70°58' E 026°05'611.1
2017-Aug-13 13:30N 70°60' E 026°21'511.0
2017-Aug-13 13:00N 71°02' E 026°37'611.1
2017-Aug-13 12:30N 71°04' E 026°53'510.9
2017-Aug-13 12:00N 71°05' E 027°09'611.3
2017-Aug-13 11:30N 71°07' E 027°25'611.7
2017-Aug-13 11:00N 71°09' E 027°43'611.2
2017-Aug-13 10:29N 71°08' E 028°00'511.3
2017-Aug-13 10:00N 71°07' E 028°17'610.9
2017-Aug-13 09:29N 71°04' E 028°32'511.0
2017-Aug-13 09:00N 71°01' E 028°45'510.7
2017-Aug-13 08:30N 70°58' E 028°59'510.6
2017-Aug-13 07:59N 70°55' E 029°12'5 9.9
2017-Aug-13 07:30N 70°52' E 029°25'510.0
2017-Aug-13 07:00N 70°50' E 029°38'510.2
2017-Aug-13 06:30N 70°47' E 029°51'510.0
2017-Aug-13 06:00N 70°44' E 030°04'5 9.4
2017-Aug-13 05:30N 70°41' E 030°14'5 9.3
2017-Aug-13 05:00N 70°37' E 030°21'5 0.5
2017-Aug-12 20:28N 70°34' E 030°31'4 9.2
2017-Aug-12 20:00N 70°32' E 030°43'5 9.8
2017-Aug-12 19:30N 70°29' E 030°53'5 9.3
2017-Aug-12 19:00N 70°25' E 031°01'5 9.5
2017-Aug-12 18:30N 70°21' E 031°05'5 9.6
2017-Aug-12 18:00N 70°16' E 031°02'510.5
2017-Aug-12 17:30N 70°13' E 030°50'510.5
2017-Aug-12 17:00N 70°09' E 030°38'510.3
2017-Aug-12 16:29N 70°06' E 030°25'510.4
2017-Aug-12 16:00N 70°04' E 030°12'510.6
2017-Aug-12 15:30N 70°03' E 029°57'510.7
2017-Aug-12 15:00N 70°02' E 029°41'1 0.1
2017-Aug-12 06:35N 70°03' E 029°38'110.6
2017-Aug-12 06:29N 70°03' E 029°41'510.2
2017-Aug-12 06:00N 70°03' E 029°55'510.0
2017-Aug-12 05:30N 70°04' E 030°10'5 9.9
2017-Aug-12 05:00N 70°06' E 030°23'510.3
2017-Aug-12 04:30N 70°09' E 030°35'510.2
2017-Aug-12 04:00N 70°12' E 030°47'510.2
2017-Aug-12 03:30N 70°15' E 030°59'5 9.3
2017-Aug-12 03:00N 70°19' E 031°06'510.9
2017-Aug-12 02:30N 70°24' E 031°03'5 9.6
2017-Aug-12 02:00N 70°29' E 030°55'5 9.7
2017-Aug-12 01:30N 70°32' E 030°44'5 9.0
2017-Aug-12 01:00N 70°34' E 030°32'4 1.3
2017-Aug-11 21:41N 70°36' E 030°21'  
Track history (hours):
 
Tides and Currents Weather Stations Pressure Air Temp Water Temp Dewpoint Dewpoint Depression Visibility Wind Speed Wind Dir Waves Ship Positions

Orion Explorer

Last reported at 2017-Aug-21 21:30 UTC. Time now 2017-Aug-21 21:50 UTC.
Position N 68°31' E 014°57'.

Length 59 m; draft 4.5 m.

Type: Cargo ship. MMSI: 259496000.

Date/timePositionNaut miles runAvg speedWind from/ knotsBaromVisibWave heightAir tempDewpointWater temp
2017-Aug-21 21:30N 68°31' E 014°57'0 0.0
2017-Aug-21 21:00N 68°31' E 014°57'0 0.7
2017-Aug-21 20:30N 68°31' E 014°58'4 7.6
2017-Aug-21 20:00N 68°35' E 014°58'0 0.7
2017-Aug-21 19:30N 68°34' E 014°57'0 0.0
2017-Aug-21 19:01N 68°34' E 014°57'0 0.0
2017-Aug-21 18:30N 68°34' E 014°57'0 0.0
2017-Aug-21 18:00N 68°34' E 014°57'0 0.0
2017-Aug-21 17:30N 68°34' E 014°57'0 0.0
2017-Aug-21 17:00N 68°34' E 014°57'0 0.0
2017-Aug-21 16:30N 68°34' E 014°57'0 0.0
2017-Aug-21 16:00N 68°34' E 014°57'0 0.0
2017-Aug-21 15:30N 68°34' E 014°57'0 0.0
2017-Aug-21 15:00N 68°34' E 014°57'0 0.0
2017-Aug-21 14:30N 68°34' E 014°57'0 0.0
2017-Aug-21 14:01N 68°34' E 014°57'0 0.0
2017-Aug-21 13:30N 68°34' E 014°57'0 0.0
2017-Aug-21 13:00N 68°34' E 014°57'0 0.0
2017-Aug-21 12:30N 68°34' E 014°57'0 0.0
2017-Aug-21 12:00N 68°34' E 014°57'0 0.0
2017-Aug-21 11:30N 68°34' E 014°57'0 0.0
2017-Aug-21 11:01N 68°34' E 014°57'0 0.2
2017-Aug-21 10:30N 68°34' E 014°57'0 0.0
2017-Aug-21 10:00N 68°34' E 014°57'0 0.0
2017-Aug-21 09:30N 68°34' E 014°57'1 2.8
2017-Aug-21 09:00N 68°34' E 015°01'611.3
2017-Aug-21 08:30N 68°37' E 015°15'511.0
2017-Aug-21 08:00N 68°41' E 015°25'611.0
2017-Aug-21 07:29N 68°46' E 015°25'611.4
2017-Aug-21 07:00N 68°52' E 015°30'611.4
2017-Aug-21 06:30N 68°57' E 015°36'5 9.7
2017-Aug-21 06:00N 68°59' E 015°49'611.2
2017-Aug-21 05:30N 68°59' E 016°04'611.2
2017-Aug-21 05:00N 68°60' E 016°20'611.9
2017-Aug-21 04:30N 68°58' E 016°36'611.5
2017-Aug-21 04:00N 68°59' E 016°52'612.1
2017-Aug-21 03:30N 68°60' E 017°08'510.7
2017-Aug-21 03:01N 69°03' E 017°20'611.5
2017-Aug-21 02:31N 69°06' E 017°33'611.9
2017-Aug-21 02:00N 69°09' E 017°49'510.5
2017-Aug-21 01:30N 69°12' E 018°01'611.4
2017-Aug-21 01:00N 69°18' E 017°58'510.4
2017-Aug-21 00:30N 69°22' E 018°06'611.1
2017-Aug-21 00:00N 69°28' E 018°07'611.2
2017-Aug-20 23:30N 69°30' E 018°21'611.5
2017-Aug-20 23:00N 69°33' E 018°36'510.7
2017-Aug-20 22:31N 69°35' E 018°50'612.0
2017-Aug-20 22:00N 69°40' E 018°60'611.4
2017-Aug-20 21:30N 69°45' E 019°07'611.3
2017-Aug-20 21:00N 69°48' E 019°21'611.9
2017-Aug-20 20:30N 69°50' E 019°38'611.7
2017-Aug-20 20:00N 69°53' E 019°53'611.6
2017-Aug-20 19:30N 69°57' E 020°05'611.5
2017-Aug-20 19:00N 69°59' E 020°20'611.5
2017-Aug-20 18:31N 70°01' E 020°35'611.9
2017-Aug-20 18:00N 70°04' E 020°52'611.3
2017-Aug-20 17:30N 70°08' E 021°01'611.4
2017-Aug-20 17:01N 70°13' E 021°09'611.3
2017-Aug-20 16:30N 70°17' E 021°21'611.6
2017-Aug-20 16:01N 70°21' E 021°33'611.0
2017-Aug-20 15:30N 70°25' E 021°47'611.5
2017-Aug-20 15:00N 70°26' E 022°03'611.6
2017-Aug-20 14:31N 70°28' E 022°20'611.1
2017-Aug-20 14:00N 70°29' E 022°36'611.2
2017-Aug-20 13:30N 70°30' E 022°52'510.8
2017-Aug-20 13:00N 70°34' E 023°04'611.0
2017-Aug-20 12:30N 70°38' E 023°16'510.6
2017-Aug-20 12:00N 70°41' E 023°28'510.5
2017-Aug-20 11:30N 70°45' E 023°39'611.2
2017-Aug-20 11:00N 70°49' E 023°52'611.1
2017-Aug-20 10:30N 70°53' E 024°04'510.5
2017-Aug-20 10:00N 70°57' E 024°15'510.6
2017-Aug-20 09:31N 70°60' E 024°27'5 9.7
2017-Aug-20 09:00N 71°01' E 024°42'611.3
2017-Aug-20 08:30N 70°59' E 024°59'611.3
2017-Aug-20 08:00N 70°59' E 025°16'510.8
2017-Aug-20 07:30N 70°57' E 025°30'611.1
2017-Aug-20 07:00N 70°56' E 025°47'611.6
2017-Aug-20 06:30N 70°58' E 026°05'611.7
2017-Aug-20 05:59N 70°60' E 026°22'611.7
2017-Aug-20 05:29N 71°02' E 026°39'611.9
2017-Aug-20 05:00N 71°04' E 026°56'611.4
2017-Aug-20 04:30N 71°06' E 027°12'510.9
2017-Aug-20 04:00N 71°07' E 027°28'510.8
2017-Aug-20 03:31N 71°08' E 027°44'510.4
2017-Aug-20 03:00N 71°08' E 028°01'510.6
2017-Aug-20 02:30N 71°07' E 028°16'510.2
2017-Aug-20 02:00N 71°04' E 028°30'510.6
2017-Aug-20 01:30N 71°01' E 028°44'510.9
2017-Aug-20 01:00N 70°58' E 028°58'510.6
2017-Aug-20 00:30N 70°55' E 029°11'510.3
2017-Aug-20 00:00N 70°53' E 029°24'510.5
2017-Aug-19 23:30N 70°50' E 029°38'510.5
2017-Aug-19 23:00N 70°47' E 029°52'510.4
2017-Aug-19 22:30N 70°44' E 030°04'510.2
2017-Aug-19 22:00N 70°40' E 030°15'9 2.9
2017-Aug-19 19:02N 70°34' E 030°32'011.9
2017-Aug-19 19:00N 70°34' E 030°33'611.5
2017-Aug-19 18:30N 70°31' E 030°48'611.8
2017-Aug-19 18:01N 70°26' E 030°60'611.6
2017-Aug-19 17:30N 70°21' E 031°05'510.6
2017-Aug-19 17:00N 70°16' E 031°00'611.2
2017-Aug-19 16:30N 70°12' E 030°47'511.1
2017-Aug-19 16:00N 70°09' E 030°35'511.0
2017-Aug-19 15:30N 70°06' E 030°22'510.9
2017-Aug-19 15:00N 70°03' E 030°07'1111.0
2017-Aug-19 14:00N 70°02' E 029°35'4 0.6
2017-Aug-19 06:31N 70°04' E 029°23'510.6
2017-Aug-19 06:04N 70°03' E 029°37'110.7
2017-Aug-19 06:00N 70°03' E 029°39'510.6
2017-Aug-19 05:30N 70°03' E 029°55'510.7
2017-Aug-19 05:00N 70°04' E 030°10'510.6
2017-Aug-19 04:30N 70°06' E 030°24'611.1
2017-Aug-19 04:00N 70°09' E 030°37'511.0
2017-Aug-19 03:30N 70°13' E 030°50'510.8
2017-Aug-19 03:00N 70°16' E 031°02'510.1
2017-Aug-19 02:30N 70°21' E 031°04'511.1
2017-Aug-19 02:01N 70°26' E 031°00'611.2
2017-Aug-19 01:30N 70°30' E 030°48'510.9
2017-Aug-19 01:00N 70°34' E 030°35'5 1.6
2017-Aug-18 21:44N 70°36' E 030°21'310.6
2017-Aug-18 21:25N 70°39' E 030°18'410.7
2017-Aug-18 21:00N 70°43' E 030°10'511.0
2017-Aug-18 20:30N 70°46' E 029°56'510.8
2017-Aug-18 20:00N 70°49' E 029°42'510.5
2017-Aug-18 19:30N 70°52' E 029°29'510.1
2017-Aug-18 19:00N 70°55' E 029°16'5 9.8
2017-Aug-18 18:30N 70°57' E 029°03'5 9.9
2017-Aug-18 18:00N 70°60' E 028°51'5 9.5
2017-Aug-18 17:30N 71°02' E 028°38'5 9.9
2017-Aug-18 17:00N 71°05' E 028°25'5 9.5
2017-Aug-18 16:30N 71°08' E 028°13'5 9.9
2017-Aug-18 16:00N 71°08' E 027°58'510.1
2017-Aug-18 15:31N 71°09' E 027°42'5 9.8
2017-Aug-18 15:00N 71°08' E 027°27'1110.8
2017-Aug-18 14:00N 71°04' E 026°56'610.9
2017-Aug-18 13:29N 71°02' E 026°39'510.3
2017-Aug-18 13:00N 71°01' E 026°25'510.3
2017-Aug-18 12:30N 70°59' E 026°10'510.4
2017-Aug-18 12:00N 70°57' E 025°54'4 7.3
2017-Aug-18 11:30N 70°59' E 025°45'0 0.0
2017-Aug-18 11:00N 70°59' E 025°45'0 0.0
2017-Aug-18 10:29N 70°59' E 025°45'0 0.0
2017-Aug-18 10:00N 70°59' E 025°45'3 7.1
2017-Aug-18 09:30N 70°56' E 025°40'510.8
2017-Aug-18 09:00N 70°58' E 025°25'510.7
2017-Aug-18 08:30N 70°60' E 025°09'510.7
2017-Aug-18 08:00N 71°00' E 024°52'510.7
2017-Aug-18 07:30N 71°01' E 024°36'5 9.8
2017-Aug-18 07:00N 70°58' E 024°26'611.0
2017-Aug-18 06:30N 70°53' E 024°19'510.6
2017-Aug-18 06:00N 70°48' E 024°13'510.7
2017-Aug-18 05:30N 70°43' E 024°11'510.4
2017-Aug-18 05:01N 70°38' E 024°10'510.1
2017-Aug-18 04:29N 70°33' E 024°03'5 9.7
2017-Aug-18 04:00N 70°30' E 023°52'5 9.9
2017-Aug-18 03:30N 70°27' E 023°41'510.5
2017-Aug-18 03:00N 70°23' E 023°31'510.7
2017-Aug-18 02:30N 70°18' E 023°22'4 9.0
2017-Aug-18 02:01N 70°14' E 023°16'1 2.8
2017-Aug-18 01:29N 70°14' E 023°20'0 0.4
2017-Aug-18 01:00N 70°14' E 023°20'0 0.5
2017-Aug-18 00:30N 70°14' E 023°21'510.2
2017-Aug-18 00:00N 70°14' E 023°05'510.0
2017-Aug-17 23:30N 70°14' E 022°50'510.8
2017-Aug-17 23:01N 70°15' E 022°35'510.8
2017-Aug-17 22:30N 70°18' E 022°20'510.8
2017-Aug-17 22:00N 70°20' E 022°06'510.8
2017-Aug-17 21:30N 70°22' E 021°52'5 9.1
2017-Aug-17 21:00N 70°23' E 021°38'611.1
2017-Aug-17 20:30N 70°19' E 021°27'510.6
2017-Aug-17 20:00N 70°15' E 021°15'1410.4
2017-Aug-17 18:41N 70°04' E 020°54'210.3
2017-Aug-17 18:30N 70°03' E 020°49'611.2
2017-Aug-17 18:00N 70°01' E 020°34'611.2
2017-Aug-17 17:30N 69°59' E 020°18'611.3
2017-Aug-17 17:01N 69°56' E 020°04'610.9
2017-Aug-17 16:30N 69°53' E 019°51'510.7
2017-Aug-17 16:00N 69°50' E 019°38'611.2
2017-Aug-17 15:30N 69°48' E 019°23'611.3
2017-Aug-17 15:00N 69°45' E 019°09'4 7.6
2017-Aug-17 14:31N 69°42' E 019°05'0 0.0
2017-Aug-17 14:00N 69°42' E 019°05'2 3.0
2017-Aug-17 13:30N 69°41' E 019°02'611.1
2017-Aug-17 13:00N 69°36' E 018°53'5 9.5
2017-Aug-17 12:30N 69°33' E 018°42'510.7
2017-Aug-17 12:00N 69°31' E 018°28'510.5
2017-Aug-17 11:30N 69°29' E 018°14'4 8.4
2017-Aug-17 11:00N 69°26' E 018°07'4 9.0
2017-Aug-17 10:31N 69°21' E 018°06'510.3
2017-Aug-17 10:00N 69°17' E 017°58'510.1
2017-Aug-17 09:30N 69°12' E 018°01'5 9.8
2017-Aug-17 09:00N 69°09' E 017°50'510.8
2017-Aug-17 08:30N 69°07' E 017°36'611.0
2017-Aug-17 08:00N 69°04' E 017°22'510.7
2017-Aug-17 07:30N 69°00' E 017°13'510.6
2017-Aug-17 07:00N 68°59' E 016°59'510.6
2017-Aug-17 06:30N 68°59' E 016°44'510.4
2017-Aug-17 06:01N 68°58' E 016°30'510.5
2017-Aug-17 05:31N 68°60' E 016°16'510.7
2017-Aug-17 05:00N 68°59' E 016°01'510.7
2017-Aug-17 04:30N 68°59' E 015°46'5 9.6
2017-Aug-17 04:00N 68°56' E 015°35'510.7
2017-Aug-17 03:30N 68°51' E 015°29'611.0
2017-Aug-17 03:00N 68°45' E 015°26'611.4
2017-Aug-17 02:30N 68°40' E 015°24'510.8
2017-Aug-17 02:01N 68°36' E 015°13'5 9.7
2017-Aug-17 01:30N 68°34' E 015°01'1 2.8
2017-Aug-17 01:00N 68°34' E 014°57'0 0.0
2017-Aug-17 00:30N 68°34' E 014°57'0 0.0
2017-Aug-17 00:00N 68°34' E 014°57'0 0.0
2017-Aug-16 23:31N 68°34' E 014°57'0 0.0
2017-Aug-16 23:00N 68°34' E 014°57'0 0.0
2017-Aug-16 22:30N 68°34' E 014°57'0 0.0
2017-Aug-16 22:00N 68°34' E 014°57'0 0.0
2017-Aug-16 21:30N 68°34' E 014°57'0 0.0
2017-Aug-16 21:00N 68°34' E 014°57'0 0.0
2017-Aug-16 20:30N 68°34' E 014°57'0 0.0
2017-Aug-16 20:00N 68°34' E 014°57'0 0.0
2017-Aug-16 19:30N 68°34' E 014°57'0 0.0
2017-Aug-16 18:59N 68°34' E 014°57'2 5.0
2017-Aug-16 18:30N 68°33' E 015°03'611.4
2017-Aug-16 18:00N 68°29' E 015°13'612.7
2017-Aug-16 17:30N 68°24' E 015°05'611.6
2017-Aug-16 17:00N 68°18' E 014°58'3 5.6
2017-Aug-16 16:30N 68°17' E 015°05'611.5
2017-Aug-16 16:00N 68°21' E 015°16'2 4.3
2017-Aug-16 15:30N 68°23' E 015°19'0 0.0
2017-Aug-16 15:00N 68°23' E 015°19'0 0.0
2017-Aug-16 14:29N 68°23' E 015°19'3 5.4
2017-Aug-16 14:00N 68°20' E 015°23'510.7
2017-Aug-16 13:30N 68°18' E 015°36'510.8
2017-Aug-16 13:00N 68°20' E 015°50'510.6
2017-Aug-16 12:30N 68°24' E 015°60'611.4
2017-Aug-16 12:00N 68°29' E 016°06'611.3
2017-Aug-16 11:30N 68°33' E 016°16'611.2
2017-Aug-16 11:00N 68°34' E 016°31'510.7
2017-Aug-16 10:30N 68°39' E 016°37'510.6
2017-Aug-16 10:00N 68°43' E 016°44'610.9
2017-Aug-16 09:29N 68°48' E 016°52'511.0
2017-Aug-16 09:00N 68°53' E 016°60'510.9
2017-Aug-16 08:30N 68°57' E 017°10'611.5
2017-Aug-16 08:00N 68°59' E 017°24'1 2.7
2017-Aug-16 07:30N 69°00' E 017°27'1 1.5
2017-Aug-16 07:00N 68°60' E 017°27'611.1
2017-Aug-16 06:30N 68°54' E 017°26'4 8.5
2017-Aug-16 06:00N 68°50' E 017°24'5 9.8
2017-Aug-16 05:29N 68°46' E 017°15'4 7.8
2017-Aug-16 05:00N 68°43' E 017°09'0 0.0
2017-Aug-16 04:30N 68°43' E 017°09'0 0.0
2017-Aug-16 04:00N 68°43' E 017°09'0 0.0
2017-Aug-16 03:30N 68°43' E 017°09'0 0.0
2017-Aug-16 03:00N 68°43' E 017°09'0 0.3
2017-Aug-16 02:30N 68°43' E 017°08'3 5.1
2017-Aug-16 02:00N 68°42' E 017°03'1 1.1
2017-Aug-16 01:30N 68°42' E 017°04'4 8.9
2017-Aug-16 01:00N 68°43' E 016°52'4 8.7
2017-Aug-16 00:30N 68°46' E 016°43'510.3
2017-Aug-16 00:00N 68°51' E 016°36'510.8
2017-Aug-15 23:30N 68°53' E 016°24'611.0
2017-Aug-15 23:00N 68°57' E 016°12'510.8
2017-Aug-15 22:30N 68°59' E 015°58'510.4
2017-Aug-15 22:00N 68°59' E 015°43'5 9.4
2017-Aug-15 21:30N 68°55' E 015°35'510.6
2017-Aug-15 21:00N 68°50' E 015°28'510.8
2017-Aug-15 20:30N 68°45' E 015°25'510.9
2017-Aug-15 20:00N 68°40' E 015°26'2 4.1
2017-Aug-15 19:30N 68°38' E 015°29'0 0.0
2017-Aug-15 19:00N 68°38' E 015°29'3 5.0
2017-Aug-15 18:30N 68°37' E 015°23'0 0.6
2017-Aug-15 18:00N 68°37' E 015°23'5 9.9
2017-Aug-15 17:30N 68°34' E 015°11'5 9.9
2017-Aug-15 17:00N 68°29' E 015°14'0 0.3
2017-Aug-15 16:30N 68°30' E 015°14'0 0.0
2017-Aug-15 16:00N 68°30' E 015°14'4 7.9
2017-Aug-15 15:29N 68°30' E 015°03'2 5.0
2017-Aug-15 15:00N 68°31' E 014°57'0 0.0
2017-Aug-15 14:30N 68°31' E 014°57'0 0.0
2017-Aug-15 14:00N 68°31' E 014°57'1 1.0
2017-Aug-15 13:30N 68°31' E 014°58'4 7.4
2017-Aug-15 13:00N 68°34' E 014°59'1 1.4
2017-Aug-15 12:29N 68°34' E 014°57'0 0.0
2017-Aug-15 12:00N 68°34' E 014°57'0 0.0
2017-Aug-15 11:30N 68°34' E 014°57'0 0.0
2017-Aug-15 11:00N 68°34' E 014°57'0 0.0
2017-Aug-15 10:30N 68°34' E 014°57'0 0.0
2017-Aug-15 10:00N 68°34' E 014°57'0 0.0
2017-Aug-15 09:30N 68°34' E 014°57'0 0.0
2017-Aug-15 09:00N 68°34' E 014°57'0 0.0
2017-Aug-15 08:30N 68°34' E 014°57'0 0.0
2017-Aug-15 08:00N 68°34' E 014°57'0 0.0
2017-Aug-15 07:30N 68°34' E 014°57'0 0.0
2017-Aug-15 07:00N 68°34' E 014°57'0 0.0
2017-Aug-15 06:30N 68°34' E 014°57'0 0.0
2017-Aug-15 05:59N 68°34' E 014°57'0 0.1
2017-Aug-15 05:30N 68°35' E 014°57'0 0.0
2017-Aug-15 05:00N 68°35' E 014°57'0 0.0
2017-Aug-15 04:30N 68°35' E 014°57'0 0.0
2017-Aug-15 04:00N 68°35' E 014°57'0 0.0
2017-Aug-15 03:30N 68°35' E 014°57'0 0.0
2017-Aug-15 03:00N 68°35' E 014°57'0 0.0
2017-Aug-15 02:30N 68°35' E 014°57'0 0.0
2017-Aug-15 02:00N 68°35' E 014°57'0 0.0
2017-Aug-15 01:30N 68°35' E 014°57'0 0.0
2017-Aug-15 01:00N 68°35' E 014°57'0 0.0
2017-Aug-15 00:30N 68°35' E 014°57'0 0.0
2017-Aug-15 00:00N 68°35' E 014°57'0 0.0
2017-Aug-14 23:30N 68°35' E 014°57'0 0.0
2017-Aug-14 23:00N 68°35' E 014°57'1 1.8
2017-Aug-14 22:30N 68°34' E 014°59'510.5
2017-Aug-14 22:00N 68°36' E 015°13'610.9
2017-Aug-14 21:30N 68°40' E 015°24'5 9.9
2017-Aug-14 21:00N 68°45' E 015°26'510.5
2017-Aug-14 20:30N 68°50' E 015°28'611.1
2017-Aug-14 20:00N 68°55' E 015°35'5 9.7
2017-Aug-14 19:30N 68°59' E 015°43'510.5
2017-Aug-14 19:00N 68°59' E 015°58'611.1
2017-Aug-14 18:30N 68°60' E 016°13'510.3
2017-Aug-14 18:00N 68°59' E 016°27'510.3
2017-Aug-14 17:30N 68°59' E 016°41'510.9
2017-Aug-14 17:00N 68°59' E 016°56'510.7
2017-Aug-14 16:30N 69°00' E 017°11'5 9.5
2017-Aug-14 16:00N 69°03' E 017°21'5 9.7
2017-Aug-14 15:30N 69°06' E 017°31'19 7.8
2017-Aug-14 13:07N 69°21' E 018°06'1 6.0
2017-Aug-14 13:00N 69°21' E 018°06'510.2
2017-Aug-14 12:30N 69°26' E 018°07'5 9.3
2017-Aug-14 12:00N 69°30' E 018°16'510.3
2017-Aug-14 11:30N 69°32' E 018°30'5 9.8
2017-Aug-14 11:00N 69°33' E 018°43'510.1
2017-Aug-14 10:30N 69°37' E 018°54'5 9.4
2017-Aug-14 10:00N 69°41' E 019°01'2 3.6
2017-Aug-14 09:30N 69°42' E 019°04'0 0.0
2017-Aug-14 09:00N 69°42' E 019°04'2 5.0
2017-Aug-14 08:30N 69°44' E 019°05'5 9.9
2017-Aug-14 08:00N 69°47' E 019°17'5 9.9
2017-Aug-14 07:29N 69°49' E 019°30'510.1
2017-Aug-14 07:00N 69°51' E 019°44'510.4
2017-Aug-14 06:30N 69°54' E 019°56'510.0
2017-Aug-14 06:00N 69°57' E 020°07'5 9.5
2017-Aug-14 05:30N 69°59' E 020°19'5 9.9
2017-Aug-14 05:00N 70°01' E 020°33'5 9.7
2017-Aug-14 04:30N 70°03' E 020°46'5 9.5
2017-Aug-14 03:59N 70°06' E 020°57'510.3
2017-Aug-14 03:30N 70°10' E 021°04'510.0
2017-Aug-14 02:59N 70°15' E 021°12'510.3
2017-Aug-14 02:30N 70°18' E 021°24'510.2
2017-Aug-14 02:00N 70°22' E 021°34'5 9.9
2017-Aug-14 01:30N 70°24' E 021°46'510.5
2017-Aug-14 01:00N 70°26' E 022°01'510.6
2017-Aug-14 00:30N 70°27' E 022°17'611.0
2017-Aug-13 23:59N 70°29' E 022°33'511.2
2017-Aug-13 23:30N 70°30' E 022°48'510.8
2017-Aug-13 23:00N 70°33' E 023°02'611.1
2017-Aug-13 22:30N 70°38' E 023°12'611.7
2017-Aug-13 22:00N 70°42' E 023°22'5 9.5
2017-Aug-13 21:30N 70°47' E 023°26'1 1.2
2017-Aug-13 21:00N 70°48' E 023°25'0 0.0
2017-Aug-13 20:30N 70°48' E 023°25'0 0.0
2017-Aug-13 20:00N 70°48' E 023°25'4 7.4
2017-Aug-13 19:30N 70°48' E 023°36'510.7
2017-Aug-13 19:00N 70°51' E 023°50'510.4
2017-Aug-13 18:30N 70°54' E 024°03'5 9.6
2017-Aug-13 18:00N 70°57' E 024°15'5 9.9
2017-Aug-13 17:30N 70°60' E 024°26'5 8.9
2017-Aug-13 17:00N 71°01' E 024°39'5 9.9
2017-Aug-13 16:29N 70°60' E 024°54'510.1
2017-Aug-13 16:00N 70°59' E 025°09'5 9.9
2017-Aug-13 15:30N 70°58' E 025°24'4 7.8
2017-Aug-13 15:00N 70°56' E 025°33'510.6
2017-Aug-13 14:30N 70°56' E 025°49'510.8
2017-Aug-13 14:00N 70°58' E 026°05'611.1
2017-Aug-13 13:30N 70°60' E 026°21'511.0
2017-Aug-13 13:00N 71°02' E 026°37'611.1
2017-Aug-13 12:30N 71°04' E 026°53'510.9
2017-Aug-13 12:00N 71°05' E 027°09'611.3
2017-Aug-13 11:30N 71°07' E 027°25'611.7
2017-Aug-13 11:00N 71°09' E 027°43'611.2
2017-Aug-13 10:29N 71°08' E 028°00'511.3
2017-Aug-13 10:00N 71°07' E 028°17'610.9
2017-Aug-13 09:29N 71°04' E 028°32'511.0
2017-Aug-13 09:00N 71°01' E 028°45'510.7
2017-Aug-13 08:30N 70°58' E 028°59'510.6
2017-Aug-13 07:59N 70°55' E 029°12'5 9.9
2017-Aug-13 07:30N 70°52' E 029°25'510.0
2017-Aug-13 07:00N 70°50' E 029°38'510.2
2017-Aug-13 06:30N 70°47' E 029°51'510.0
2017-Aug-13 06:00N 70°44' E 030°04'5 9.4
2017-Aug-13 05:30N 70°41' E 030°14'5 9.3
2017-Aug-13 05:00N 70°37' E 030°21'5 0.5
2017-Aug-12 20:28N 70°34' E 030°31'4 9.2
2017-Aug-12 20:00N 70°32' E 030°43'5 9.8
2017-Aug-12 19:30N 70°29' E 030°53'5 9.3
2017-Aug-12 19:00N 70°25' E 031°01'5 9.5
2017-Aug-12 18:30N 70°21' E 031°05'5 9.6
2017-Aug-12 18:00N 70°16' E 031°02'510.5
2017-Aug-12 17:30N 70°13' E 030°50'510.5
2017-Aug-12 17:00N 70°09' E 030°38'510.3
2017-Aug-12 16:29N 70°06' E 030°25'510.4
2017-Aug-12 16:00N 70°04' E 030°12'510.6
2017-Aug-12 15:30N 70°03' E 029°57'510.7
2017-Aug-12 15:00N 70°02' E 029°41'1 0.1
2017-Aug-12 06:35N 70°03' E 029°38'110.6
2017-Aug-12 06:29N 70°03' E 029°41'510.2
2017-Aug-12 06:00N 70°03' E 029°55'510.0
2017-Aug-12 05:30N 70°04' E 030°10'5 9.9
2017-Aug-12 05:00N 70°06' E 030°23'510.3
2017-Aug-12 04:30N 70°09' E 030°35'510.2
2017-Aug-12 04:00N 70°12' E 030°47'510.2
2017-Aug-12 03:30N 70°15' E 030°59'5 9.3
2017-Aug-12 03:00N 70°19' E 031°06'510.9
2017-Aug-12 02:30N 70°24' E 031°03'5 9.6
2017-Aug-12 02:00N 70°29' E 030°55'5 9.7
2017-Aug-12 01:30N 70°32' E 030°44'5 9.0
2017-Aug-12 01:00N 70°34' E 030°32'4 1.3
2017-Aug-11 21:41N 70°36' E 030°21'  

Dump ship's entire track history